Time;durP1;ratioP1;P1;durP2;ratioP2;P2;SDS_P1;SDS_P2;PMS_P1;PMS_P2;Temp;Humidity;BMP_temperature;BMP_pressure;BME280_temperature;BME280_humidity;BME280_pressure;Samples;Min_cycle;Max_cycle;Signal;HPM_P1;HPM_P2
2021/05/03 00:01:32;;;;;;;5.10;4.70;;;8.90;94.50;;;;;;5048308;28;20214;-52
2021/05/03 00:03:57;;;;;;;4.63;4.23;;;9.20;94.90;;;;;;5041715;28;20751;-52
2021/05/03 00:06:23;;;;;;;5.00;4.40;;;8.70;95.40;;;;;;5045218;28;20221;-53
2021/05/03 00:08:49;;;;;;;4.93;4.53;;;8.60;95.70;;;;;;5046570;28;20667;-52
2021/05/03 00:11:14;;;;;;;4.90;4.50;;;8.50;96.00;;;;;;5046858;28;20209;-53
2021/05/03 00:13:40;;;;;;;4.90;4.40;;;8.50;96.20;;;;;;5045414;28;20202;-52
2021/05/03 00:16:05;;;;;;;4.87;4.40;;;8.70;96.80;;;;;;5050340;28;20274;-53
2021/05/03 00:18:31;;;;;;;4.67;4.20;;;8.20;97.10;;;;;;5051590;28;20177;-52
2021/05/03 00:20:57;;;;;;;5.13;4.07;;;8.50;97.40;;;;;;5047071;28;20186;-53
2021/05/03 00:23:22;;;;;;;4.87;4.37;;;8.30;97.70;;;;;;5047048;28;20215;-52
2021/05/03 00:25:48;;;;;;;5.03;4.63;;;8.00;98.20;;;;;;5043493;28;20184;-52
2021/05/03 00:28:14;;;;;;;5.20;4.70;;;8.00;98.70;;;;;;5050260;28;20558;-53
2021/05/03 00:30:39;;;;;;;5.90;4.50;;;8.00;98.50;;;;;;5049443;28;20280;-52
2021/05/03 00:33:05;;;;;;;6.07;5.30;;;7.90;98.20;;;;;;5047008;28;20245;-52
2021/05/03 00:35:32;;;;;;;4.68;4.28;;;7.90;98.30;;;;;;5047905;28;20274;-52
2021/05/03 00:37:58;;;;;;;5.35;4.85;;;7.90;98.40;;;;;;5050186;28;20302;-53
2021/05/03 00:40:23;;;;;;;5.17;4.67;;;7.90;99.10;;;;;;5047836;28;20278;-53
2021/05/03 00:42:49;;;;;;;5.50;4.90;;;8.00;99.70;;;;;;5047646;28;20235;-52
2021/05/03 00:45:18;;;;;;;5.03;4.60;;;7.80;99.90;;;;;;5049804;28;20533;-53
2021/05/03 00:47:44;;;;;;;5.07;4.63;;;7.70;99.90;;;;;;5048410;28;20181;-52
2021/05/03 00:50:13;;;;;;;6.20;4.88;;;7.80;99.90;;;;;;5049704;28;20181;-52
2021/05/03 00:52:39;;;;;;;4.97;4.57;;;7.70;99.90;;;;;;5044983;28;20199;-52
2021/05/03 00:55:05;;;;;;;4.90;4.40;;;7.60;99.90;;;;;;5064150;28;20189;-53
2021/05/03 00:57:32;;;;;;;5.15;4.30;;;7.60;99.90;;;;;;5046891;28;20446;-52
2021/05/03 00:59:57;;;;;;;5.35;4.32;;;7.60;99.90;;;;;;5045409;28;20550;-52
2021/05/03 01:02:23;;;;;;;6.13;4.83;;;7.60;99.90;;;;;;5049429;28;20308;-51
2021/05/03 01:04:49;;;;;;;4.67;4.27;;;7.50;99.90;;;;;;5049471;28;20273;-53
2021/05/03 01:07:15;;;;;;;5.93;5.00;;;7.50;99.90;;;;;;5045065;28;20404;-53
2021/05/03 01:09:50;;;;;;;5.28;4.78;;;7.50;99.90;;;;;;5049325;28;20449;-52
2021/05/03 01:12:16;;;;;;;5.10;4.65;;;7.70;99.90;;;;;;5046583;28;20204;-52
2021/05/03 01:14:42;;;;;;;4.50;4.10;;;7.70;99.90;;;;;;5044628;28;20189;-52
2021/05/03 01:17:07;;;;;;;5.43;4.80;;;7.70;99.90;;;;;;5050637;28;20675;-52
2021/05/03 01:19:33;;;;;;;5.70;5.00;;;7.60;99.90;;;;;;5049134;28;20192;-53
2021/05/03 01:21:59;;;;;;;5.90;5.20;;;7.60;99.90;;;;;;5050993;28;20205;-53
2021/05/03 01:24:24;;;;;;;5.00;4.50;;;7.50;99.90;;;;;;5049363;28;20181;-52
2021/05/03 01:26:50;;;;;;;7.23;5.27;;;7.60;99.90;;;;;;5047586;28;20190;-52
2021/05/03 01:29:16;;;;;;;5.67;5.17;;;7.40;99.90;;;;;;5049266;28;20860;-52
2021/05/03 01:31:47;;;;;;;5.45;4.95;;;7.60;99.90;;;;;;5049103;28;20323;-52
2021/05/03 01:34:13;;;;;;;5.32;4.82;;;7.50;99.90;;;;;;5046257;28;20728;-52
2021/05/03 01:36:40;;;;;;;7.10;5.40;;;7.40;99.90;;;;;;5048748;28;20197;-52
2021/05/03 01:39:08;;;;;;;6.00;5.10;;;7.30;99.90;;;;;;5046170;28;20182;-52
2021/05/03 01:41:34;;;;;;;6.82;6.22;;;7.50;99.90;;;;;;5045806;28;20343;-52
2021/05/03 01:44:01;;;;;;;5.88;5.30;;;7.60;99.90;;;;;;5047690;28;20209;-52
2021/05/03 01:46:28;;;;;;;6.07;5.57;;;7.40;99.90;;;;;;5049134;28;20277;-52
2021/05/03 01:48:54;;;;;;;6.10;5.50;;;7.00;99.90;;;;;;5048848;28;20241;-53
2021/05/03 01:51:20;;;;;;;5.72;5.22;;;7.20;99.90;;;;;;5048764;28;20193;-53
2021/05/03 01:53:46;;;;;;;6.40;5.80;;;7.10;99.90;;;;;;5048759;28;20249;-52
2021/05/03 01:56:15;;;;;;;5.85;5.25;;;7.30;99.90;;;;;;5048320;28;20190;-53
2021/05/03 01:58:41;;;;;;;6.93;6.05;;;7.30;99.90;;;;;;5048774;28;20687;-52
2021/05/03 02:01:07;;;;;;;5.83;5.20;;;6.70;99.90;;;;;;5048303;28;20194;-53
2021/05/03 02:03:32;;;;;;;8.30;5.67;;;7.40;99.90;;;;;;5048348;28;20219;-52
2021/05/03 02:05:59;;;;;;;6.87;5.70;;;7.20;99.90;;;;;;5049097;28;20248;-52
2021/05/03 02:08:24;;;;;;;7.43;6.70;;;7.30;99.90;;;;;;5049974;28;20498;-53
2021/05/03 02:10:51;;;;;;;8.20;6.13;;;7.20;99.90;;;;;;5045676;28;20187;-52
2021/05/03 02:13:18;;;;;;;7.22;6.53;;;7.40;99.90;;;;;;5045702;28;20217;-52
2021/05/03 02:15:46;;;;;;;7.10;6.25;;;7.30;99.90;;;;;;5048344;28;20183;-53
2021/05/03 02:18:12;;;;;;;6.15;5.55;;;7.10;99.90;;;;;;5048006;28;20181;-52
2021/05/03 02:20:38;;;;;;;7.22;5.97;;;7.50;99.90;;;;;;5039186;28;20805;-53
2021/05/03 02:23:05;;;;;;;6.03;5.53;;;7.20;99.90;;;;;;5033365;28;20215;-53
2021/05/03 02:25:30;;;;;;;7.63;6.68;;;7.10;99.90;;;;;;5045073;28;20442;-53
2021/05/03 02:27:58;;;;;;;7.03;6.43;;;6.60;99.90;;;;;;5046756;28;20192;-53
2021/05/03 02:30:24;;;;;;;8.45;6.55;;;6.70;99.90;;;;;;5048328;28;20573;-52
2021/05/03 02:32:49;;;;;;;7.20;6.30;;;6.90;99.90;;;;;;5047900;28;20211;-52
2021/05/03 02:35:20;;;;;;;7.00;6.30;;;6.70;99.90;;;;;;5047365;28;20569;-52
2021/05/03 02:37:50;;;;;;;6.85;6.20;;;6.80;99.90;;;;;;5048881;28;20333;-53
2021/05/03 02:40:17;;;;;;;6.95;6.18;;;6.60;99.90;;;;;;5045933;28;20195;-52
2021/05/03 02:42:50;;;;;;;9.00;6.88;;;6.80;99.90;;;;;;5048084;28;20228;-53
2021/05/03 02:45:16;;;;;;;6.97;6.35;;;6.80;99.90;;;;;;5046707;28;20191;-52
2021/05/03 02:47:42;;;;;;;7.57;6.82;;;6.60;99.90;;;;;;5036888;28;20178;-52
2021/05/03 02:50:09;;;;;;;7.07;6.43;;;6.70;99.90;;;;;;5039272;28;20649;-53
2021/05/03 02:52:35;;;;;;;7.28;6.57;;;6.90;99.90;;;;;;5047814;28;20214;-52
2021/05/03 02:55:01;;;;;;;8.32;7.50;;;6.60;99.90;;;;;;5047234;28;20187;-53
2021/05/03 02:57:27;;;;;;;8.53;7.50;;;6.70;99.90;;;;;;5043954;28;20568;-52
2021/05/03 02:59:52;;;;;;;7.83;7.03;;;6.50;99.90;;;;;;5044273;28;20444;-52
2021/05/03 03:02:18;;;;;;;7.87;7.07;;;6.70;99.90;;;;;;5047608;28;20310;-52
2021/05/03 03:04:44;;;;;;;7.50;6.80;;;6.40;99.90;;;;;;5047943;28;20204;-53
2021/05/03 03:07:09;;;;;;;7.90;7.20;;;6.20;99.90;;;;;;5047734;28;20499;-53
2021/05/03 03:09:35;;;;;;;7.97;6.70;;;6.60;99.90;;;;;;5044261;28;20569;-52
2021/05/03 03:12:01;;;;;;;7.90;7.07;;;6.40;99.90;;;;;;5045560;28;20277;-53
2021/05/03 03:14:27;;;;;;;8.93;8.13;;;6.50;99.90;;;;;;5049011;28;20214;-53
2021/05/03 03:16:53;;;;;;;9.73;7.80;;;6.60;99.90;;;;;;5046165;28;20232;-53
2021/05/03 03:19:18;;;;;;;8.33;7.53;;;6.50;99.90;;;;;;5048554;28;20558;-52
2021/05/03 03:21:44;;;;;;;8.30;6.63;;;6.20;99.90;;;;;;5047360;28;20210;-52
2021/05/03 03:24:11;;;;;;;8.03;7.23;;;6.40;99.90;;;;;;5047289;28;20209;-52
2021/05/03 03:26:36;;;;;;;8.30;7.47;;;6.20;99.90;;;;;;5045205;28;20189;-53
2021/05/03 03:29:03;;;;;;;9.20;8.30;;;6.30;99.90;;;;;;5038815;28;20267;-53
2021/05/03 03:31:29;;;;;;;8.05;6.93;;;6.40;99.90;;;;;;5046877;28;20217;-52
2021/05/03 03:33:55;;;;;;;7.73;7.00;;;6.40;99.90;;;;;;5047253;28;20234;-52
2021/05/03 03:36:20;;;;;;;7.50;6.70;;;6.50;99.90;;;;;;5047107;28;20613;-52
2021/05/03 03:38:46;;;;;;;8.20;7.50;;;6.30;99.90;;;;;;5045968;28;20202;-52
2021/05/03 03:41:11;;;;;;;8.80;7.70;;;6.40;99.90;;;;;;5046929;28;20189;-52
2021/05/03 03:43:37;;;;;;;7.27;6.57;;;6.60;99.90;;;;;;5046127;28;20234;-52
2021/05/03 03:46:03;;;;;;;8.70;7.80;;;6.70;99.90;;;;;;5045289;28;20265;-53
2021/05/03 03:48:28;;;;;;;9.57;8.03;;;6.60;99.90;;;;;;5048841;28;20185;-52
2021/05/03 03:50:54;;;;;;;9.40;8.13;;;6.20;99.90;;;;;;5050144;28;20722;-52
2021/05/03 03:53:19;;;;;;;9.60;8.50;;;6.40;99.90;;;;;;5051173;28;20216;-52
2021/05/03 03:55:45;;;;;;;8.23;7.40;;;6.40;99.90;;;;;;5050793;28;20194;-52
2021/05/03 03:58:11;;;;;;;8.23;7.40;;;6.70;99.90;;;;;;5050811;28;20555;-52
2021/05/03 04:00:36;;;;;;;8.40;7.60;;;6.60;99.90;;;;;;5049474;28;20648;-53
2021/05/03 04:03:05;;;;;;;7.97;7.27;;;6.40;99.90;;;;;;5051800;28;20264;-52
2021/05/03 04:08:07;;;;;;;9.25;8.35;;;6.70;99.90;;;;;;5052998;28;20205;-52
2021/05/03 04:10:43;;;;;;;8.45;7.55;;;6.50;99.90;;;;;;5051068;28;20231;-52
2021/05/03 04:26:25;;;;;;;8.70;7.80;;;6.30;99.90;;;;;;5052061;28;20216;-51
2021/05/03 04:28:53;;;;;;;12.05;7.97;;;6.20;99.90;;;;;;5048016;28;20274;-52
2021/05/03 04:31:20;;;;;;;10.95;9.15;;;6.30;99.90;;;;;;5051478;28;20241;-52
2021/05/03 04:33:46;;;;;;;9.15;8.25;;;6.10;99.90;;;;;;5046704;28;20212;-52
2021/05/03 04:36:12;;;;;;;8.75;7.93;;;6.20;99.90;;;;;;5048942;28;20193;-51
2021/05/03 04:38:38;;;;;;;10.90;8.67;;;6.00;99.90;;;;;;5044157;28;20178;-51
2021/05/03 04:41:03;;;;;;;15.23;8.90;;;5.90;99.90;;;;;;5043567;28;20182;-51
2021/05/03 04:43:29;;;;;;;10.17;8.60;;;6.30;99.90;;;;;;5044083;28;20487;-52
2021/05/03 04:45:55;;;;;;;10.25;8.20;;;6.30;99.90;;;;;;5045931;28;20188;-52
2021/05/03 04:48:22;;;;;;;12.10;10.85;;;6.20;99.90;;;;;;5047857;28;20297;-50
2021/05/03 04:50:48;;;;;;;10.52;8.70;;;5.90;99.90;;;;;;5045782;28;20567;-49
2021/05/03 04:53:13;;;;;;;10.63;9.53;;;6.20;99.90;;;;;;5042693;28;20210;-50
2021/05/03 04:55:39;;;;;;;10.03;8.40;;;5.90;99.90;;;;;;5044781;28;20476;-51
2021/05/03 04:58:05;;;;;;;10.53;8.37;;;6.00;99.90;;;;;;5048805;28;20200;-51
2021/05/03 05:00:30;;;;;;;9.87;8.83;;;5.90;99.90;;;;;;5044481;28;20236;-50
2021/05/03 05:02:56;;;;;;;12.30;9.70;;;6.00;99.90;;;;;;5044782;28;20222;-52
2021/05/03 05:05:22;;;;;;;9.23;8.17;;;6.50;99.90;;;;;;5044751;28;20213;-52
2021/05/03 05:07:48;;;;;;;9.82;8.43;;;6.10;99.90;;;;;;5039715;28;20944;-53
2021/05/03 05:10:14;;;;;;;21.13;9.30;;;5.90;99.90;;;;;;5045852;28;20182;-52
2021/05/03 05:12:40;;;;;;;9.75;8.73;;;6.00;99.90;;;;;;5043831;28;20295;-52
2021/05/03 05:15:06;;;;;;;9.73;8.63;;;6.00;99.90;;;;;;5044284;28;20734;-53
2021/05/03 05:17:32;;;;;;;9.68;8.65;;;6.30;99.90;;;;;;5043732;28;20180;-53
2021/05/03 05:19:58;;;;;;;12.00;9.00;;;6.10;99.90;;;;;;5043468;28;20191;-52
2021/05/03 05:22:25;;;;;;;10.83;9.60;;;6.10;99.90;;;;;;5046438;28;20239;-53
2021/05/03 05:24:51;;;;;;;11.10;9.07;;;6.20;99.90;;;;;;5046130;28;20190;-53
2021/05/03 05:27:16;;;;;;;9.80;8.80;;;6.30;99.90;;;;;;5043775;28;20186;-54
2021/05/03 05:29:42;;;;;;;11.97;10.63;;;6.40;99.90;;;;;;5046269;28;20182;-53
2021/05/03 05:32:08;;;;;;;11.27;9.35;;;6.60;99.90;;;;;;5041849;28;20257;-52
2021/05/03 05:34:34;;;;;;;13.13;9.73;;;6.60;99.90;;;;;;5041603;28;20217;-57
2021/05/03 05:37:00;;;;;;;10.13;9.02;;;6.60;99.90;;;;;;5046762;28;20410;-56
2021/05/03 05:39:25;;;;;;;11.13;8.57;;;6.70;99.90;;;;;;5043685;28;20201;-53
2021/05/03 05:41:51;;;;;;;11.10;9.50;;;6.80;99.90;;;;;;5042982;28;20747;-54
2021/05/03 05:44:17;;;;;;;11.40;9.00;;;7.00;99.90;;;;;;5045996;28;20336;-55
2021/05/03 05:46:44;;;;;;;11.60;9.63;;;7.20;99.90;;;;;;5045849;28;20177;-55
2021/05/03 05:49:11;;;;;;;9.68;8.68;;;7.30;99.90;;;;;;5048899;28;20252;-54
2021/05/03 05:51:38;;;;;;;9.75;8.75;;;7.20;99.90;;;;;;5047082;28;20192;-54
2021/05/03 05:54:05;;;;;;;10.48;9.48;;;7.50;99.90;;;;;;5041623;28;20221;-54
2021/05/03 05:56:30;;;;;;;10.93;9.90;;;7.50;99.90;;;;;;5040049;28;20181;-55
2021/05/03 05:58:56;;;;;;;10.30;9.30;;;7.40;99.90;;;;;;5044723;28;20237;-53
2021/05/03 06:01:22;;;;;;;11.93;10.60;;;7.40;99.90;;;;;;5047313;28;20780;-52
2021/05/03 06:03:48;;;;;;;10.43;9.20;;;7.50;99.90;;;;;;5044916;28;20584;-52
2021/05/03 06:06:14;;;;;;;11.27;9.57;;;7.80;99.90;;;;;;5046366;28;20177;-53
2021/05/03 06:08:39;;;;;;;10.23;9.13;;;8.10;99.90;;;;;;5045171;28;20247;-52
2021/05/03 06:11:05;;;;;;;13.60;9.20;;;8.10;99.90;;;;;;5043436;28;20186;-53
2021/05/03 06:13:31;;;;;;;9.50;8.13;;;8.60;99.90;;;;;;5058424;28;20884;-53
2021/05/03 06:15:56;;;;;;;9.80;8.70;;;8.70;99.90;;;;;;5045301;28;20204;-53
2021/05/03 06:18:22;;;;;;;12.90;10.60;;;8.90;99.90;;;;;;5045551;28;20189;-53
2021/05/03 06:20:48;;;;;;;9.50;8.60;;;8.80;99.70;;;;;;5045770;28;20201;-52
2021/05/03 06:23:14;;;;;;;9.73;8.73;;;8.70;99.80;;;;;;5044973;28;20217;-51
2021/05/03 06:25:41;;;;;;;11.00;8.53;;;8.60;99.20;;;;;;5046341;28;20432;-52
2021/05/03 06:28:07;;;;;;;12.15;10.90;;;9.00;99.30;;;;;;5047829;28;20185;-54
2021/05/03 06:30:34;;;;;;;9.88;8.10;;;9.30;98.80;;;;;;5046087;28;20185;-53
2021/05/03 06:33:00;;;;;;;9.73;8.82;;;9.90;98.00;;;;;;5046293;28;20209;-52
2021/05/03 06:35:25;;;;;;;8.70;7.80;;;10.20;96.80;;;;;;5044598;28;20675;-55
2021/05/03 06:37:51;;;;;;;9.83;8.63;;;10.70;94.80;;;;;;5045456;28;20190;-55
2021/05/03 06:40:18;;;;;;;8.45;7.55;;;10.80;94.30;;;;;;5046652;28;20224;-53
2021/05/03 06:42:44;;;;;;;9.23;8.32;;;10.90;94.00;;;;;;5045239;28;20211;-53
2021/05/03 06:45:11;;;;;;;8.17;7.40;;;11.10;93.70;;;;;;5060120;28;20247;-55
2021/05/03 06:47:37;;;;;;;9.18;8.10;;;11.60;93.00;;;;;;5044186;28;20183;-56
2021/05/03 06:50:07;;;;;;;8.93;8.10;;;11.40;91.90;;;;;;5042024;28;20189;-56
2021/05/03 06:52:33;;;;;;;8.35;7.65;;;11.70;91.80;;;;;;5042143;28;20209;-55
2021/05/03 06:54:58;;;;;;;8.70;8.00;;;12.00;91.30;;;;;;5046111;28;20189;-55
2021/05/03 06:57:24;;;;;;;8.20;6.70;;;12.70;89.80;;;;;;5048754;28;20192;-53
2021/05/03 06:59:56;;;;;;;8.03;7.33;;;13.30;86.00;;;;;;5043049;28;20208;-51
2021/05/03 07:02:23;;;;;;;9.15;6.97;;;15.30;82.30;;;;;;5049246;28;20238;-52
2021/05/03 07:04:49;;;;;;;7.25;6.65;;;16.80;72.40;;;;;;5044323;28;20192;-53
2021/05/03 07:07:18;;;;;;;7.80;6.50;;;18.60;66.90;;;;;;5044656;28;20190;-51
2021/05/03 07:09:46;;;;;;;7.40;6.75;;;19.30;59.80;;;;;;5048797;28;20185;-50
2021/05/03 07:12:14;;;;;;;6.78;6.20;;;19.00;58.90;;;;;;5049848;28;20202;-51
2021/05/03 07:14:40;;;;;;;7.53;6.83;;;20.60;56.80;;;;;;5045819;28;20849;-53
2021/05/03 07:17:06;;;;;;;6.87;6.37;;;22.00;53.20;;;;;;5046497;28;20720;-51
2021/05/03 07:19:33;;;;;;;7.13;6.53;;;22.30;51.30;;;;;;5043949;28;20972;-49
2021/05/03 07:22:00;;;;;;;7.00;6.40;;;22.10;50.60;;;;;;5040771;28;21054;-51
2021/05/03 07:24:26;;;;;;;7.37;6.77;;;22.40;48.80;;;;;;5045909;28;20440;-50
2021/05/03 07:26:51;;;;;;;6.20;5.70;;;22.30;48.60;;;;;;5045535;28;21072;-54
2021/05/03 07:29:18;;;;;;;7.07;6.13;;;23.40;46.60;;;;;;5043223;28;20237;-54
2021/05/03 07:31:43;;;;;;;7.50;6.90;;;24.40;45.10;;;;;;5041853;28;20199;-50
2021/05/03 07:34:10;;;;;;;6.60;6.00;;;24.60;44.90;;;;;;5046579;28;20459;-50
2021/05/03 07:36:35;;;;;;;6.77;6.23;;;24.50;43.10;;;;;;5046139;28;20786;-52
2021/05/03 07:39:01;;;;;;;6.30;5.80;;;24.40;42.90;;;;;;5047049;28;20525;-53
2021/05/03 07:41:27;;;;;;;6.53;6.03;;;23.60;43.40;;;;;;5045521;28;20195;-50
2021/05/03 07:43:53;;;;;;;6.37;5.87;;;23.40;43.70;;;;;;5043170;28;20448;-53
2021/05/03 07:46:25;;;;;;;6.60;6.00;;;23.60;43.10;;;;;;5044036;28;20201;-51
2021/05/03 07:48:54;;;;;;;6.50;5.90;;;23.20;43.50;;;;;;5042127;28;20653;-51
2021/05/03 07:51:20;;;;;;;8.38;7.68;;;22.20;43.90;;;;;;5046386;28;20515;-51
2021/05/03 07:53:47;;;;;;;7.03;6.43;;;20.60;46.80;;;;;;5045203;28;20213;-52
2021/05/03 07:56:16;;;;;;;7.93;7.22;;;19.30;48.60;;;;;;5046094;28;20182;-50
2021/05/03 07:58:45;;;;;;;8.63;7.00;;;18.00;51.00;;;;;;5042138;28;20193;-50
2021/05/03 08:01:12;;;;;;;8.32;7.53;;;17.30;53.50;;;;;;5046040;28;20640;-50
2021/05/03 08:03:39;;;;;;;8.15;7.45;;;16.80;55.10;;;;;;5043082;28;20225;-51
2021/05/03 08:06:06;;;;;;;8.88;7.30;;;16.20;56.90;;;;;;5043398;28;20178;-50
2021/05/03 08:08:32;;;;;;;7.82;7.15;;;15.60;58.60;;;;;;5045467;28;20247;-51
2021/05/03 08:10:58;;;;;;;8.00;7.30;;;15.10;60.20;;;;;;5046534;28;20347;-51
2021/05/03 08:13:26;;;;;;;8.27;7.30;;;14.00;60.90;;;;;;5044553;28;20247;-51
2021/05/03 08:15:53;;;;;;;8.90;8.07;;;14.20;64.00;;;;;;5045117;28;20528;-51
2021/05/03 08:18:18;;;;;;;8.65;7.70;;;13.80;65.30;;;;;;5044927;28;20239;-51
2021/05/03 08:20:44;;;;;;;7.93;7.20;;;13.60;67.00;;;;;;5041775;28;20194;-53
2021/05/03 08:23:12;;;;;;;8.50;7.70;;;13.50;68.40;;;;;;5043022;28;20724;-51
2021/05/03 08:25:37;;;;;;;7.85;7.18;;;13.50;69.50;;;;;;5044407;28;20540;-53
2021/05/03 08:28:03;;;;;;;8.50;7.80;;;13.30;71.00;;;;;;5045700;28;20576;-53
2021/05/03 08:30:33;;;;;;;9.70;8.03;;;13.10;72.50;;;;;;5044397;28;20197;-52
2021/05/03 08:32:59;;;;;;;9.25;8.18;;;13.10;73.40;;;;;;5044497;28;20752;-52
2021/05/03 08:35:24;;;;;;;8.73;7.87;;;13.20;74.10;;;;;;5046972;28;20185;-57
2021/05/03 08:37:50;;;;;;;9.03;8.13;;;13.30;74.10;;;;;;5047396;28;20578;-54
2021/05/03 08:40:16;;;;;;;7.90;7.20;;;13.00;73.80;;;;;;5050951;28;20198;-54
2021/05/03 08:42:43;;;;;;;8.90;7.30;;;13.70;72.80;;;;;;5065333;28;20652;-53
2021/05/03 08:45:09;;;;;;;7.80;7.10;;;14.30;69.10;;;;;;5049937;28;20212;-54
2021/05/03 08:47:38;;;;;;;8.20;7.50;;;14.90;65.40;;;;;;5046732;28;21019;-53
2021/05/03 08:50:14;;;;;;;9.80;8.73;;;15.20;64.10;;;;;;5047353;28;20448;-51
2021/05/03 08:52:46;;;;;;;7.85;7.15;;;15.00;63.20;;;;;;5043488;28;20216;-53
2021/05/03 08:55:12;;;;;;;8.60;7.80;;;14.30;64.20;;;;;;5048852;28;20189;-55
2021/05/03 08:57:40;;;;;;;7.80;6.80;;;14.40;64.80;;;;;;5050763;28;20660;-54
2021/05/03 09:00:12;;;;;;;8.57;7.45;;;14.20;65.70;;;;;;5048485;28;20189;-51
2021/05/03 09:02:39;;;;;;;9.43;8.43;;;14.00;66.00;;;;;;5049573;28;20675;-54
2021/05/03 09:05:06;;;;;;;8.20;7.40;;;13.80;66.30;;;;;;5043796;28;20239;-54
2021/05/03 09:07:31;;;;;;;7.53;6.82;;;14.40;67.10;;;;;;5047762;28;20265;-52
2021/05/03 09:09:57;;;;;;;7.97;7.27;;;16.20;62.20;;;;;;5046876;28;20285;-51
2021/05/03 09:12:24;;;;;;;10.20;7.97;;;18.00;57.70;;;;;;5047437;28;20572;-50
2021/05/03 09:14:56;;;;;;;8.30;7.50;;;18.70;55.70;;;;;;5050022;28;20251;-54
2021/05/03 09:17:27;;;;;;;8.97;7.70;;;20.50;52.50;;;;;;5049179;28;20193;-51
2021/05/03 09:19:54;;;;;;;8.23;7.53;;;21.80;49.20;;;;;;5049379;28;20875;-52
2021/05/03 09:22:31;;;;;;;8.30;7.60;;;22.10;47.20;;;;;;5044749;28;20938;-52
2021/05/03 09:25:18;;;;;;;7.97;7.27;;;20.50;46.60;;;;;;5046671;28;20443;-51
2021/05/03 09:27:46;;;;;;;7.60;6.90;;;19.30;48.80;;;;;;5045056;28;20435;-51
2021/05/03 09:30:13;;;;;;;9.40;8.50;;;18.40;50.90;;;;;;5037808;28;20660;-51
2021/05/03 09:32:40;;;;;;;8.63;7.93;;;17.60;53.10;;;;;;5048418;28;21009;-52
2021/05/03 09:35:06;;;;;;;8.80;8.00;;;15.70;54.50;;;;;;5046374;28;20984;-51
2021/05/03 09:37:34;;;;;;;6.78;6.07;;;15.70;56.30;;;;;;5047233;28;20481;-52
2021/05/03 09:40:09;;;;;;;7.45;6.50;;;15.60;56.40;;;;;;5042658;28;20292;-51
2021/05/03 09:42:51;;;;;;;7.60;6.75;;;15.40;56.60;;;;;;5041318;28;20403;-50
2021/05/03 09:45:24;;;;;;;6.78;6.05;;;15.00;55.30;;;;;;5047535;28;20181;-51
2021/05/03 09:47:55;;;;;;;5.43;5.03;;;14.70;54.50;;;;;;5039658;28;20181;-52
2021/05/03 09:50:24;;;;;;;5.40;4.90;;;15.10;54.50;;;;;;5048140;28;20209;-53
2021/05/03 09:53:06;;;;;;;5.53;5.03;;;14.70;52.60;;;;;;5046698;28;20213;-52
2021/05/03 09:55:39;;;;;;;5.43;4.53;;;14.90;53.00;;;;;;5045927;28;20177;-53
2021/05/03 09:58:16;;;;;;;5.20;4.70;;;14.60;53.10;;;;;;5036804;28;20193;-51
2021/05/03 10:00:53;;;;;;;7.10;5.97;;;14.60;53.90;;;;;;5046905;28;20193;-52
2021/05/03 10:03:46;;;;;;;7.25;6.55;;;14.90;55.20;;;;;;5045987;28;20431;-54
2021/05/03 10:06:14;;;;;;;7.03;6.43;;;15.70;56.60;;;;;;5047632;28;20440;-54
2021/05/03 10:08:42;;;;;;;6.45;5.95;;;16.00;56.30;;;;;;5046467;28;20248;-54
2021/05/03 10:11:09;;;;;;;7.22;6.18;;;16.60;55.40;;;;;;5045969;28;20181;-54
2021/05/03 10:13:37;;;;;;;6.25;5.65;;;16.60;52.70;;;;;;5042085;28;20740;-53
2021/05/03 10:16:03;;;;;;;5.72;5.20;;;17.10;50.20;;;;;;5045322;28;20640;-56
2021/05/03 10:18:31;;;;;;;4.83;4.43;;;17.00;50.30;;;;;;5044329;28;20296;-56
2021/05/03 10:20:57;;;;;;;4.65;4.30;;;16.80;48.50;;;;;;5045587;28;20478;-55
2021/05/03 10:23:25;;;;;;;4.65;4.35;;;16.50;49.50;;;;;;5047313;28;20587;-56
2021/05/03 10:26:00;;;;;;;5.30;4.80;;;16.40;49.50;;;;;;5045173;28;20558;-56
2021/05/03 10:28:27;;;;;;;6.97;4.60;;;15.60;51.40;;;;;;5046043;28;20277;-56
2021/05/03 10:31:02;;;;;;;5.60;5.10;;;15.20;51.20;;;;;;5061830;28;20267;-56
2021/05/03 10:33:38;;;;;;;4.20;3.85;;;15.40;50.50;;;;;;5039598;28;20224;-56
2021/05/03 10:36:08;;;;;;;4.93;4.30;;;16.00;48.20;;;;;;5061518;28;20188;-57
2021/05/03 10:38:40;;;;;;;4.50;4.10;;;15.70;47.90;;;;;;5046058;28;20192;-51
2021/05/03 10:41:27;;;;;;;4.13;3.72;;;15.90;49.20;;;;;;5037438;28;20200;-53
2021/05/03 10:44:21;;;;;;;4.05;3.70;;;15.60;48.10;;;;;;5044614;28;20567;-54
2021/05/03 10:49:29;;;;;;;5.22;4.65;;;15.60;51.40;;;;;;5041635;28;20212;-53
2021/05/03 10:51:57;;;;;;;5.40;4.95;;;15.50;51.70;;;;;;5044410;28;20189;-55
2021/05/03 10:57:20;;;;;;;5.47;4.47;;;15.60;52.40;;;;;;5042909;28;20181;-53
2021/05/03 10:59:48;;;;;;;6.15;4.70;;;15.30;51.80;;;;;;5043820;28;20182;-52
2021/05/03 11:02:43;;;;;;;10.93;4.30;;;16.10;52.10;;;;;;5042265;28;20237;-52
2021/05/03 11:05:27;;;;;;;4.35;4.03;;;16.90;49.40;;;;;;5043858;28;20265;-50
2021/05/03 11:08:06;;;;;;;4.78;4.38;;;17.90;47.10;;;;;;5048100;28;20747;-54
2021/05/03 11:10:54;;;;;;;4.18;3.78;;;18.10;46.20;;;;;;5047042;28;20189;-54
2021/05/03 11:13:40;;;;;;;3.10;2.90;;;17.70;45.80;;;;;;5046435;28;20319;-55
2021/05/03 11:16:31;;;;;;;3.85;3.40;;;16.80;43.60;;;;;;5047026;28;20197;-55
2021/05/03 11:18:59;;;;;;;4.00;3.10;;;16.50;45.20;;;;;;5047508;28;20197;-54
2021/05/03 11:21:45;;;;;;;3.35;3.15;;;16.10;43.60;;;;;;5059568;28;20224;-52
2021/05/03 11:24:29;;;;;;;4.80;3.83;;;15.90;44.70;;;;;;5034984;28;20296;-52
2021/05/03 11:29:30;;;;;;;2.88;2.67;;;15.90;44.80;;;;;;5050001;28;20178;-52
2021/05/03 11:31:56;;;;;;;3.42;2.67;;;15.90;45.80;;;;;;5045247;28;20668;-53
2021/05/03 11:34:31;;;;;;;3.20;2.90;;;15.70;45.70;;;;;;5045752;28;20248;-52
2021/05/03 11:37:01;;;;;;;3.20;2.90;;;15.80;46.60;;;;;;5039267;28;20276;-52
2021/05/03 11:39:48;;;;;;;3.13;2.83;;;15.10;45.80;;;;;;5045171;28;20684;-54
2021/05/03 11:44:51;;;;;;;3.30;3.00;;;16.20;46.50;;;;;;5043316;28;20196;-52
2021/05/03 11:47:27;;;;;;;4.95;3.28;;;16.60;44.20;;;;;;5047619;28;20672;-51
2021/05/03 11:49:54;;;;;;;3.00;2.80;;;16.40;44.20;;;;;;5048159;28;20181;-51
2021/05/03 11:52:31;;;;;;;3.22;3.03;;;16.60;44.30;;;;;;5047985;28;20209;-51
2021/05/03 11:55:08;;;;;;;3.38;3.17;;;16.90;44.60;;;;;;5043364;28;20197;-52
2021/05/03 11:57:43;;;;;;;3.00;2.70;;;16.80;45.10;;;;;;5044819;28;20192;-51
2021/05/03 12:00:11;;;;;;;3.63;3.33;;;17.20;46.00;;;;;;5062280;28;20717;-50
2021/05/03 12:02:37;;;;;;;2.83;2.63;;;17.30;44.60;;;;;;5044689;28;20317;-51
2021/05/03 12:05:15;;;;;;;3.10;2.80;;;17.00;43.60;;;;;;5045718;28;20273;-51
2021/05/03 12:07:41;;;;;;;2.90;2.70;;;17.00;43.50;;;;;;5042104;28;20231;-55
2021/05/03 12:10:10;;;;;;;2.80;2.60;;;17.00;44.00;;;;;;5048275;28;20259;-54
2021/05/03 12:12:52;;;;;;;2.88;2.55;;;16.40;43.90;;;;;;5050650;28;20221;-53
2021/05/03 12:15:19;;;;;;;3.20;2.90;;;16.60;45.00;;;;;;5043390;28;20185;-53
2021/05/03 12:17:45;;;;;;;2.57;2.37;;;16.70;44.60;;;;;;5049528;28;20231;-51
2021/05/03 12:20:19;;;;;;;2.92;2.72;;;16.90;44.30;;;;;;5048737;28;20197;-52
2021/05/03 12:23:03;;;;;;;3.72;3.42;;;17.40;45.10;;;;;;5047646;28;20227;-50
2021/05/03 12:25:54;;;;;;;2.88;2.67;;;17.30;43.40;;;;;;5047951;28;20187;-53
2021/05/03 12:28:25;;;;;;;3.15;2.85;;;17.10;44.10;;;;;;5047190;28;20277;-49
2021/05/03 12:30:56;;;;;;;5.82;2.78;;;16.90;43.10;;;;;;5050366;28;20278;-50
2021/05/03 12:33:22;;;;;;;4.70;3.00;;;16.70;43.90;;;;;;5045946;28;21042;-54
2021/05/03 12:35:49;;;;;;;2.80;2.60;;;16.70;43.90;;;;;;5045671;28;20531;-52
2021/05/03 12:38:19;;;;;;;2.90;2.70;;;16.80;44.50;;;;;;5049446;28;20270;-53
2021/05/03 12:40:45;;;;;;;3.15;2.90;;;17.00;44.20;;;;;;5047738;28;20214;-52
2021/05/03 12:43:12;;;;;;;3.03;2.70;;;17.10;44.00;;;;;;5041523;28;20635;-52
2021/05/03 12:45:55;;;;;;;2.95;2.70;;;17.10;43.60;;;;;;5048336;28;20439;-51
2021/05/03 12:57:15;;;;;;;3.20;2.95;;;16.50;45.80;;;;;;5046748;28;20185;-51
2021/05/03 13:08:43;;;;;;;3.20;2.90;;;16.90;44.20;;;;;;5063356;28;20181;-52
2021/05/03 13:22:58;;;;;;;2.30;2.20;;;16.20;44.10;;;;;;5050569;28;20216;-51
2021/05/03 13:28:06;;;;;;;3.58;3.28;;;16.40;43.30;;;;;;5050102;28;20182;-50
2021/05/03 13:30:37;;;;;;;2.30;2.10;;;16.40;43.80;;;;;;5045389;28;20192;-51
2021/05/03 13:33:05;;;;;;;3.97;2.45;;;16.50;43.60;;;;;;5045438;28;20959;-51
2021/05/03 13:35:34;;;;;;;2.35;2.25;;;16.50;43.80;;;;;;5049980;28;20181;-51
2021/05/03 13:38:01;;;;;;;2.25;2.13;;;16.30;44.00;;;;;;5053088;28;20185;-51
2021/05/03 13:40:29;;;;;;;2.55;2.20;;;16.50;43.70;;;;;;5050662;28;20239;-49
2021/05/03 13:42:59;;;;;;;2.70;2.50;;;16.50;44.40;;;;;;5051075;28;20272;-49
2021/05/03 13:45:26;;;;;;;3.13;2.30;;;16.30;43.20;;;;;;5051179;28;20798;-51
2021/05/03 13:47:52;;;;;;;2.22;2.00;;;16.60;43.00;;;;;;5049765;28;20186;-53
2021/05/03 13:50:19;;;;;;;2.25;2.05;;;16.70;42.80;;;;;;5045949;28;20641;-54
2021/05/03 13:52:44;;;;;;;3.75;2.50;;;16.80;42.80;;;;;;5045104;28;20771;-53
2021/05/03 13:55:10;;;;;;;2.17;1.97;;;16.40;43.00;;;;;;5045418;28;20191;-50